sensor_id;sensor_type;location;lat;lon;timestamp;P1;durP1;ratioP1;P2;durP2;ratioP2
22929;SDS011;11630;42.660;23.292;2024-01-30T00:00:07;8.73;;;5.83;;
22929;SDS011;11630;42.660;23.292;2024-01-30T00:02:38;11.83;;;6.63;;
22929;SDS011;11630;42.660;23.292;2024-01-30T00:05:09;8.90;;;6.20;;
22929;SDS011;11630;42.660;23.292;2024-01-30T00:07:40;6.67;;;5.93;;
22929;SDS011;11630;42.660;23.292;2024-01-30T00:10:10;7.23;;;6.53;;
22929;SDS011;11630;42.660;23.292;2024-01-30T00:12:41;6.77;;;5.30;;
22929;SDS011;11630;42.660;23.292;2024-01-30T00:15:11;9.27;;;6.30;;
22929;SDS011;11630;42.660;23.292;2024-01-30T00:17:43;8.43;;;5.83;;
22929;SDS011;11630;42.660;23.292;2024-01-30T00:20:14;7.03;;;5.77;;
22929;SDS011;11630;42.660;23.292;2024-01-30T00:22:50;8.90;;;6.03;;
22929;SDS011;11630;42.660;23.292;2024-01-30T00:25:22;9.10;;;6.00;;
22929;SDS011;11630;42.660;23.292;2024-01-30T00:27:53;6.17;;;5.17;;
22929;SDS011;11630;42.660;23.292;2024-01-30T00:30:23;6.93;;;5.27;;
22929;SDS011;11630;42.660;23.292;2024-01-30T00:32:57;7.20;;;5.60;;
22929;SDS011;11630;42.660;23.292;2024-01-30T00:35:27;8.90;;;6.03;;
22929;SDS011;11630;42.660;23.292;2024-01-30T00:37:58;7.77;;;5.77;;
22929;SDS011;11630;42.660;23.292;2024-01-30T00:40:30;8.77;;;6.33;;
22929;SDS011;11630;42.660;23.292;2024-01-30T00:43:01;7.00;;;5.97;;
22929;SDS011;11630;42.660;23.292;2024-01-30T00:45:30;8.40;;;6.40;;
22929;SDS011;11630;42.660;23.292;2024-01-30T00:48:04;8.87;;;6.33;;
22929;SDS011;11630;42.660;23.292;2024-01-30T00:50:35;9.93;;;6.30;;
22929;SDS011;11630;42.660;23.292;2024-01-30T00:53:06;10.30;;;6.57;;
22929;SDS011;11630;42.660;23.292;2024-01-30T00:55:37;10.63;;;6.57;;
22929;SDS011;11630;42.660;23.292;2024-01-30T00:58:08;7.30;;;6.00;;
22929;SDS011;11630;42.660;23.292;2024-01-30T01:00:39;8.13;;;6.43;;
22929;SDS011;11630;42.660;23.292;2024-01-30T01:03:10;10.40;;;6.83;;
22929;SDS011;11630;42.660;23.292;2024-01-30T01:05:41;10.13;;;6.67;;
22929;SDS011;11630;42.660;23.292;2024-01-30T01:08:12;7.53;;;6.00;;
22929;SDS011;11630;42.660;23.292;2024-01-30T01:10:43;9.10;;;6.00;;
22929;SDS011;11630;42.660;23.292;2024-01-30T01:13:14;9.87;;;6.90;;
22929;SDS011;11630;42.660;23.292;2024-01-30T01:15:45;7.37;;;5.63;;
22929;SDS011;11630;42.660;23.292;2024-01-30T01:18:15;8.23;;;6.07;;
22929;SDS011;11630;42.660;23.292;2024-01-30T01:20:46;9.77;;;6.17;;
22929;SDS011;11630;42.660;23.292;2024-01-30T01:23:16;8.87;;;6.30;;
22929;SDS011;11630;42.660;23.292;2024-01-30T01:25:47;7.73;;;5.43;;
22929;SDS011;11630;42.660;23.292;2024-01-30T01:28:18;8.10;;;6.13;;
22929;SDS011;11630;42.660;23.292;2024-01-30T01:30:49;6.33;;;5.50;;
22929;SDS011;11630;42.660;23.292;2024-01-30T01:33:20;7.93;;;5.83;;
22929;SDS011;11630;42.660;23.292;2024-01-30T01:35:51;7.57;;;6.03;;
22929;SDS011;11630;42.660;23.292;2024-01-30T01:38:22;6.87;;;5.57;;
22929;SDS011;11630;42.660;23.292;2024-01-30T01:40:52;5.93;;;5.03;;
22929;SDS011;11630;42.660;23.292;2024-01-30T01:43:23;6.20;;;5.20;;
22929;SDS011;11630;42.660;23.292;2024-01-30T01:45:54;7.27;;;4.90;;
22929;SDS011;11630;42.660;23.292;2024-01-30T01:48:25;6.13;;;4.90;;
22929;SDS011;11630;42.660;23.292;2024-01-30T01:50:56;8.07;;;5.67;;
22929;SDS011;11630;42.660;23.292;2024-01-30T01:53:28;6.33;;;5.23;;
22929;SDS011;11630;42.660;23.292;2024-01-30T01:55:59;11.40;;;5.47;;
22929;SDS011;11630;42.660;23.292;2024-01-30T01:58:30;7.40;;;5.80;;
22929;SDS011;11630;42.660;23.292;2024-01-30T02:01:02;6.07;;;5.47;;
22929;SDS011;11630;42.660;23.292;2024-01-30T02:03:34;8.13;;;5.57;;
22929;SDS011;11630;42.660;23.292;2024-01-30T02:06:05;7.07;;;5.47;;
22929;SDS011;11630;42.660;23.292;2024-01-30T02:08:37;8.03;;;5.13;;
22929;SDS011;11630;42.660;23.292;2024-01-30T02:11:08;7.67;;;5.83;;
22929;SDS011;11630;42.660;23.292;2024-01-30T02:13:40;7.70;;;5.60;;
22929;SDS011;11630;42.660;23.292;2024-01-30T02:16:12;11.03;;;6.03;;
22929;SDS011;11630;42.660;23.292;2024-01-30T02:18:43;10.63;;;6.67;;
22929;SDS011;11630;42.660;23.292;2024-01-30T02:21:16;7.70;;;5.43;;
22929;SDS011;11630;42.660;23.292;2024-01-30T02:23:47;7.77;;;5.70;;
22929;SDS011;11630;42.660;23.292;2024-01-30T02:26:20;6.57;;;5.30;;
22929;SDS011;11630;42.660;23.292;2024-01-30T02:28:51;7.30;;;5.53;;
22929;SDS011;11630;42.660;23.292;2024-01-30T02:31:24;6.40;;;5.63;;
22929;SDS011;11630;42.660;23.292;2024-01-30T02:33:55;7.27;;;5.83;;
22929;SDS011;11630;42.660;23.292;2024-01-30T02:36:25;7.90;;;6.20;;
22929;SDS011;11630;42.660;23.292;2024-01-30T02:38:56;8.17;;;5.87;;
22929;SDS011;11630;42.660;23.292;2024-01-30T02:41:27;9.00;;;5.87;;
22929;SDS011;11630;42.660;23.292;2024-01-30T02:43:57;10.57;;;5.50;;
22929;SDS011;11630;42.660;23.292;2024-01-30T02:46:27;8.30;;;6.30;;
22929;SDS011;11630;42.660;23.292;2024-01-30T02:49:04;7.70;;;5.60;;
22929;SDS011;11630;42.660;23.292;2024-01-30T02:51:34;6.33;;;4.80;;
22929;SDS011;11630;42.660;23.292;2024-01-30T02:54:04;6.83;;;5.83;;
22929;SDS011;11630;42.660;23.292;2024-01-30T02:56:35;7.97;;;4.83;;
22929;SDS011;11630;42.660;23.292;2024-01-30T02:59:06;9.97;;;5.23;;
22929;SDS011;11630;42.660;23.292;2024-01-30T03:01:43;6.90;;;4.57;;
22929;SDS011;11630;42.660;23.292;2024-01-30T03:04:14;5.80;;;5.00;;
22929;SDS011;11630;42.660;23.292;2024-01-30T03:06:45;6.50;;;5.13;;
22929;SDS011;11630;42.660;23.292;2024-01-30T03:09:16;5.80;;;5.03;;
22929;SDS011;11630;42.660;23.292;2024-01-30T03:11:48;7.00;;;5.50;;
22929;SDS011;11630;42.660;23.292;2024-01-30T03:14:19;4.67;;;4.23;;
22929;SDS011;11630;42.660;23.292;2024-01-30T03:16:50;5.83;;;4.30;;
22929;SDS011;11630;42.660;23.292;2024-01-30T03:19:20;7.97;;;5.03;;
22929;SDS011;11630;42.660;23.292;2024-01-30T03:21:52;4.83;;;4.33;;
22929;SDS011;11630;42.660;23.292;2024-01-30T03:24:22;4.87;;;4.37;;
22929;SDS011;11630;42.660;23.292;2024-01-30T03:26:53;5.23;;;4.13;;
22929;SDS011;11630;42.660;23.292;2024-01-30T03:29:23;5.13;;;4.60;;
22929;SDS011;11630;42.660;23.292;2024-01-30T03:31:54;6.00;;;4.00;;
22929;SDS011;11630;42.660;23.292;2024-01-30T03:34:25;4.57;;;3.80;;
22929;SDS011;11630;42.660;23.292;2024-01-30T03:36:55;5.00;;;4.50;;
22929;SDS011;11630;42.660;23.292;2024-01-30T03:39:25;5.50;;;4.33;;
22929;SDS011;11630;42.660;23.292;2024-01-30T03:41:55;8.77;;;4.90;;
22929;SDS011;11630;42.660;23.292;2024-01-30T03:44:26;6.63;;;4.73;;
22929;SDS011;11630;42.660;23.292;2024-01-30T03:46:57;6.57;;;4.30;;
22929;SDS011;11630;42.660;23.292;2024-01-30T03:49:28;5.73;;;4.70;;
22929;SDS011;11630;42.660;23.292;2024-01-30T03:51:59;5.73;;;4.50;;
22929;SDS011;11630;42.660;23.292;2024-01-30T03:54:30;5.57;;;4.47;;
22929;SDS011;11630;42.660;23.292;2024-01-30T03:57:00;4.67;;;4.07;;
22929;SDS011;11630;42.660;23.292;2024-01-30T03:59:31;6.00;;;5.20;;
22929;SDS011;11630;42.660;23.292;2024-01-30T04:02:00;6.23;;;4.27;;
22929;SDS011;11630;42.660;23.292;2024-01-30T04:04:31;4.90;;;4.13;;
22929;SDS011;11630;42.660;23.292;2024-01-30T04:07:02;5.53;;;4.13;;
22929;SDS011;11630;42.660;23.292;2024-01-30T04:09:32;4.30;;;3.90;;
22929;SDS011;11630;42.660;23.292;2024-01-30T04:12:04;3.97;;;3.57;;
22929;SDS011;11630;42.660;23.292;2024-01-30T04:14:34;6.17;;;3.57;;
22929;SDS011;11630;42.660;23.292;2024-01-30T04:17:06;6.73;;;4.10;;
22929;SDS011;11630;42.660;23.292;2024-01-30T04:19:37;4.70;;;3.93;;
22929;SDS011;11630;42.660;23.292;2024-01-30T04:22:07;6.30;;;3.57;;
22929;SDS011;11630;42.660;23.292;2024-01-30T04:24:38;5.07;;;3.87;;
22929;SDS011;11630;42.660;23.292;2024-01-30T04:27:09;4.63;;;3.33;;
22929;SDS011;11630;42.660;23.292;2024-01-30T04:29:40;5.13;;;4.00;;
22929;SDS011;11630;42.660;23.292;2024-01-30T04:32:11;4.20;;;3.80;;
22929;SDS011;11630;42.660;23.292;2024-01-30T04:34:42;4.97;;;3.60;;
22929;SDS011;11630;42.660;23.292;2024-01-30T04:37:13;5.53;;;4.40;;
22929;SDS011;11630;42.660;23.292;2024-01-30T04:39:44;4.73;;;4.17;;
22929;SDS011;11630;42.660;23.292;2024-01-30T04:42:16;8.90;;;4.20;;
22929;SDS011;11630;42.660;23.292;2024-01-30T04:44:46;5.90;;;4.20;;
22929;SDS011;11630;42.660;23.292;2024-01-30T04:47:18;5.60;;;4.00;;
22929;SDS011;11630;42.660;23.292;2024-01-30T04:49:51;5.27;;;4.63;;
22929;SDS011;11630;42.660;23.292;2024-01-30T04:52:21;6.37;;;4.00;;
22929;SDS011;11630;42.660;23.292;2024-01-30T04:54:52;5.13;;;4.57;;
22929;SDS011;11630;42.660;23.292;2024-01-30T04:57:24;7.47;;;4.17;;
22929;SDS011;11630;42.660;23.292;2024-01-30T04:59:55;9.67;;;4.00;;
22929;SDS011;11630;42.660;23.292;2024-01-30T05:02:26;7.97;;;4.77;;
22929;SDS011;11630;42.660;23.292;2024-01-30T05:04:56;8.30;;;4.40;;
22929;SDS011;11630;42.660;23.292;2024-01-30T05:07:27;9.17;;;5.40;;
22929;SDS011;11630;42.660;23.292;2024-01-30T05:09:58;6.77;;;4.73;;
22929;SDS011;11630;42.660;23.292;2024-01-30T05:12:28;7.37;;;4.53;;
22929;SDS011;11630;42.660;23.292;2024-01-30T05:14:59;9.73;;;4.70;;
22929;SDS011;11630;42.660;23.292;2024-01-30T05:17:30;8.00;;;4.77;;
22929;SDS011;11630;42.660;23.292;2024-01-30T05:20:00;7.00;;;5.10;;
22929;SDS011;11630;42.660;23.292;2024-01-30T05:22:30;10.40;;;5.07;;
22929;SDS011;11630;42.660;23.292;2024-01-30T05:25:01;8.77;;;5.33;;
22929;SDS011;11630;42.660;23.292;2024-01-30T05:27:31;10.03;;;4.70;;
22929;SDS011;11630;42.660;23.292;2024-01-30T05:30:02;8.57;;;4.77;;
22929;SDS011;11630;42.660;23.292;2024-01-30T05:32:34;10.27;;;6.43;;
22929;SDS011;11630;42.660;23.292;2024-01-30T05:35:04;10.53;;;5.47;;
22929;SDS011;11630;42.660;23.292;2024-01-30T05:37:34;10.93;;;6.07;;
22929;SDS011;11630;42.660;23.292;2024-01-30T05:40:05;11.13;;;5.03;;
22929;SDS011;11630;42.660;23.292;2024-01-30T05:42:36;14.13;;;5.97;;
22929;SDS011;11630;42.660;23.292;2024-01-30T05:45:07;17.03;;;8.40;;
22929;SDS011;11630;42.660;23.292;2024-01-30T05:47:37;11.07;;;5.80;;
22929;SDS011;11630;42.660;23.292;2024-01-30T05:50:08;14.30;;;6.07;;
22929;SDS011;11630;42.660;23.292;2024-01-30T05:52:39;18.13;;;5.13;;
22929;SDS011;11630;42.660;23.292;2024-01-30T05:55:10;6.10;;;4.83;;
22929;SDS011;11630;42.660;23.292;2024-01-30T05:57:40;7.60;;;5.43;;
22929;SDS011;11630;42.660;23.292;2024-01-30T06:00:11;5.50;;;4.20;;
22929;SDS011;11630;42.660;23.292;2024-01-30T06:02:41;9.90;;;5.73;;
22929;SDS011;11630;42.660;23.292;2024-01-30T06:05:12;10.73;;;5.67;;
22929;SDS011;11630;42.660;23.292;2024-01-30T06:07:43;9.87;;;6.23;;
22929;SDS011;11630;42.660;23.292;2024-01-30T06:10:13;12.17;;;6.47;;
22929;SDS011;11630;42.660;23.292;2024-01-30T06:12:45;12.47;;;5.00;;
22929;SDS011;11630;42.660;23.292;2024-01-30T06:15:16;8.93;;;5.47;;
22929;SDS011;11630;42.660;23.292;2024-01-30T06:17:46;8.87;;;5.60;;
22929;SDS011;11630;42.660;23.292;2024-01-30T06:20:17;6.73;;;5.03;;
22929;SDS011;11630;42.660;23.292;2024-01-30T06:22:48;10.43;;;5.40;;
22929;SDS011;11630;42.660;23.292;2024-01-30T06:25:21;9.87;;;5.87;;
22929;SDS011;11630;42.660;23.292;2024-01-30T06:27:51;11.90;;;6.50;;
22929;SDS011;11630;42.660;23.292;2024-01-30T06:30:21;11.63;;;6.33;;
22929;SDS011;11630;42.660;23.292;2024-01-30T06:32:52;8.43;;;5.90;;
22929;SDS011;11630;42.660;23.292;2024-01-30T06:35:23;10.50;;;6.03;;
22929;SDS011;11630;42.660;23.292;2024-01-30T06:37:54;13.70;;;6.17;;
22929;SDS011;11630;42.660;23.292;2024-01-30T06:40:25;26.20;;;6.67;;
22929;SDS011;11630;42.660;23.292;2024-01-30T06:42:56;14.97;;;7.30;;
22929;SDS011;11630;42.660;23.292;2024-01-30T06:45:26;16.37;;;6.90;;
22929;SDS011;11630;42.660;23.292;2024-01-30T06:47:57;14.90;;;7.43;;
22929;SDS011;11630;42.660;23.292;2024-01-30T06:50:28;14.53;;;6.43;;
22929;SDS011;11630;42.660;23.292;2024-01-30T06:52:59;12.20;;;6.47;;
22929;SDS011;11630;42.660;23.292;2024-01-30T06:55:30;16.97;;;7.03;;
22929;SDS011;11630;42.660;23.292;2024-01-30T06:58:01;7.10;;;5.30;;
22929;SDS011;11630;42.660;23.292;2024-01-30T07:00:32;6.40;;;4.67;;
22929;SDS011;11630;42.660;23.292;2024-01-30T07:03:03;7.00;;;4.87;;
22929;SDS011;11630;42.660;23.292;2024-01-30T07:05:34;6.17;;;4.67;;
22929;SDS011;11630;42.660;23.292;2024-01-30T07:08:04;8.73;;;4.77;;
22929;SDS011;11630;42.660;23.292;2024-01-30T07:10:36;10.30;;;5.23;;
22929;SDS011;11630;42.660;23.292;2024-01-30T07:13:07;7.63;;;5.23;;
22929;SDS011;11630;42.660;23.292;2024-01-30T07:15:37;8.67;;;5.50;;
22929;SDS011;11630;42.660;23.292;2024-01-30T07:18:07;11.70;;;5.70;;
22929;SDS011;11630;42.660;23.292;2024-01-30T07:20:38;16.70;;;6.17;;
22929;SDS011;11630;42.660;23.292;2024-01-30T07:23:15;15.13;;;6.03;;
22929;SDS011;11630;42.660;23.292;2024-01-30T07:25:45;7.57;;;3.90;;
22929;SDS011;11630;42.660;23.292;2024-01-30T07:28:18;7.30;;;3.87;;
22929;SDS011;11630;42.660;23.292;2024-01-30T07:30:49;4.27;;;3.27;;
22929;SDS011;11630;42.660;23.292;2024-01-30T07:33:22;6.93;;;3.90;;
22929;SDS011;11630;42.660;23.292;2024-01-30T07:35:53;5.27;;;3.90;;
22929;SDS011;11630;42.660;23.292;2024-01-30T07:38:23;5.00;;;3.77;;
22929;SDS011;11630;42.660;23.292;2024-01-30T07:40:54;3.57;;;3.27;;
22929;SDS011;11630;42.660;23.292;2024-01-30T07:43:25;7.00;;;3.57;;
22929;SDS011;11630;42.660;23.292;2024-01-30T07:45:56;3.30;;;3.00;;
22929;SDS011;11630;42.660;23.292;2024-01-30T07:48:27;3.87;;;3.03;;
22929;SDS011;11630;42.660;23.292;2024-01-30T07:50:59;3.03;;;2.83;;
22929;SDS011;11630;42.660;23.292;2024-01-30T07:53:30;3.20;;;2.87;;
22929;SDS011;11630;42.660;23.292;2024-01-30T07:56:01;4.60;;;3.33;;
22929;SDS011;11630;42.660;23.292;2024-01-30T07:58:30;8.07;;;3.77;;
22929;SDS011;11630;42.660;23.292;2024-01-30T08:01:01;7.73;;;3.00;;
22929;SDS011;11630;42.660;23.292;2024-01-30T08:03:32;8.10;;;3.73;;
22929;SDS011;11630;42.660;23.292;2024-01-30T08:06:03;11.10;;;3.37;;
22929;SDS011;11630;42.660;23.292;2024-01-30T08:08:33;3.60;;;3.30;;
22929;SDS011;11630;42.660;23.292;2024-01-30T08:11:04;8.03;;;2.60;;
22929;SDS011;11630;42.660;23.292;2024-01-30T08:13:36;8.43;;;3.37;;
22929;SDS011;11630;42.660;23.292;2024-01-30T08:16:07;7.53;;;3.27;;
22929;SDS011;11630;42.660;23.292;2024-01-30T08:18:38;5.20;;;3.40;;
22929;SDS011;11630;42.660;23.292;2024-01-30T08:21:10;14.50;;;3.70;;
22929;SDS011;11630;42.660;23.292;2024-01-30T08:23:41;5.87;;;3.00;;
22929;SDS011;11630;42.660;23.292;2024-01-30T08:26:12;3.13;;;2.80;;
22929;SDS011;11630;42.660;23.292;2024-01-30T08:28:44;3.70;;;3.33;;
22929;SDS011;11630;42.660;23.292;2024-01-30T08:31:15;8.73;;;3.23;;
22929;SDS011;11630;42.660;23.292;2024-01-30T08:33:45;8.20;;;3.63;;
22929;SDS011;11630;42.660;23.292;2024-01-30T08:36:16;7.03;;;3.80;;
22929;SDS011;11630;42.660;23.292;2024-01-30T08:38:47;6.10;;;3.77;;
22929;SDS011;11630;42.660;23.292;2024-01-30T08:41:18;4.27;;;3.60;;
22929;SDS011;11630;42.660;23.292;2024-01-30T08:43:48;7.43;;;3.77;;
22929;SDS011;11630;42.660;23.292;2024-01-30T08:46:19;8.33;;;3.83;;
22929;SDS011;11630;42.660;23.292;2024-01-30T08:48:52;4.03;;;3.40;;
22929;SDS011;11630;42.660;23.292;2024-01-30T08:51:24;6.00;;;3.80;;
22929;SDS011;11630;42.660;23.292;2024-01-30T08:53:55;7.57;;;3.83;;
22929;SDS011;11630;42.660;23.292;2024-01-30T08:56:26;7.40;;;4.40;;
22929;SDS011;11630;42.660;23.292;2024-01-30T08:58:56;7.87;;;4.13;;
22929;SDS011;11630;42.660;23.292;2024-01-30T09:01:27;5.80;;;3.40;;
22929;SDS011;11630;42.660;23.292;2024-01-30T09:03:57;9.20;;;5.07;;
22929;SDS011;11630;42.660;23.292;2024-01-30T09:06:29;9.73;;;4.77;;
22929;SDS011;11630;42.660;23.292;2024-01-30T09:09:00;6.37;;;4.80;;
22929;SDS011;11630;42.660;23.292;2024-01-30T09:11:31;4.57;;;4.17;;
22929;SDS011;11630;42.660;23.292;2024-01-30T09:14:01;7.80;;;5.43;;
22929;SDS011;11630;42.660;23.292;2024-01-30T09:16:32;10.30;;;6.13;;
22929;SDS011;11630;42.660;23.292;2024-01-30T09:19:04;10.10;;;5.03;;
22929;SDS011;11630;42.660;23.292;2024-01-30T09:21:35;4.10;;;3.43;;
22929;SDS011;11630;42.660;23.292;2024-01-30T09:24:06;8.80;;;5.53;;
22929;SDS011;11630;42.660;23.292;2024-01-30T09:26:37;6.17;;;4.97;;
22929;SDS011;11630;42.660;23.292;2024-01-30T09:29:08;12.60;;;5.67;;
22929;SDS011;11630;42.660;23.292;2024-01-30T09:31:39;8.53;;;4.87;;
22929;SDS011;11630;42.660;23.292;2024-01-30T09:34:16;11.90;;;5.90;;
22929;SDS011;11630;42.660;23.292;2024-01-30T09:36:45;7.67;;;4.73;;
22929;SDS011;11630;42.660;23.292;2024-01-30T09:39:16;5.83;;;4.47;;
22929;SDS011;11630;42.660;23.292;2024-01-30T09:41:54;10.77;;;5.10;;
22929;SDS011;11630;42.660;23.292;2024-01-30T09:44:22;9.97;;;5.90;;
22929;SDS011;11630;42.660;23.292;2024-01-30T09:46:54;8.77;;;4.50;;
22929;SDS011;11630;42.660;23.292;2024-01-30T09:49:29;7.90;;;5.03;;
22929;SDS011;11630;42.660;23.292;2024-01-30T09:52:03;4.67;;;3.90;;
22929;SDS011;11630;42.660;23.292;2024-01-30T09:54:35;3.83;;;3.03;;
22929;SDS011;11630;42.660;23.292;2024-01-30T09:57:07;5.20;;;4.20;;
22929;SDS011;11630;42.660;23.292;2024-01-30T09:59:37;18.47;;;5.03;;
22929;SDS011;11630;42.660;23.292;2024-01-30T10:02:08;6.30;;;5.10;;
22929;SDS011;11630;42.660;23.292;2024-01-30T10:04:44;8.87;;;4.50;;
22929;SDS011;11630;42.660;23.292;2024-01-30T10:07:18;5.83;;;4.47;;
22929;SDS011;11630;42.660;23.292;2024-01-30T10:09:49;5.23;;;4.30;;
22929;SDS011;11630;42.660;23.292;2024-01-30T10:12:20;7.67;;;4.30;;
22929;SDS011;11630;42.660;23.292;2024-01-30T10:14:51;4.77;;;4.30;;
22929;SDS011;11630;42.660;23.292;2024-01-30T10:17:24;4.83;;;3.80;;
22929;SDS011;11630;42.660;23.292;2024-01-30T10:19:54;6.97;;;4.30;;
22929;SDS011;11630;42.660;23.292;2024-01-30T10:22:25;10.13;;;4.80;;
22929;SDS011;11630;42.660;23.292;2024-01-30T10:24:56;6.63;;;4.23;;
22929;SDS011;11630;42.660;23.292;2024-01-30T10:27:28;4.27;;;3.93;;
22929;SDS011;11630;42.660;23.292;2024-01-30T10:29:59;11.80;;;5.87;;
22929;SDS011;11630;42.660;23.292;2024-01-30T10:32:31;12.00;;;5.50;;
22929;SDS011;11630;42.660;23.292;2024-01-30T10:35:02;7.87;;;4.13;;
22929;SDS011;11630;42.660;23.292;2024-01-30T10:37:32;5.70;;;4.30;;
22929;SDS011;11630;42.660;23.292;2024-01-30T10:40:03;3.10;;;2.73;;
22929;SDS011;11630;42.660;23.292;2024-01-30T10:42:35;8.43;;;4.40;;
22929;SDS011;11630;42.660;23.292;2024-01-30T10:45:07;3.87;;;2.53;;
22929;SDS011;11630;42.660;23.292;2024-01-30T10:47:47;6.70;;;5.43;;
22929;SDS011;11630;42.660;23.292;2024-01-30T10:50:15;12.67;;;5.77;;
22929;SDS011;11630;42.660;23.292;2024-01-30T10:52:47;6.57;;;5.10;;
22929;SDS011;11630;42.660;23.292;2024-01-30T10:55:18;6.33;;;4.47;;
22929;SDS011;11630;42.660;23.292;2024-01-30T10:57:50;5.50;;;4.30;;
22929;SDS011;11630;42.660;23.292;2024-01-30T11:00:21;6.50;;;4.83;;
22929;SDS011;11630;42.660;23.292;2024-01-30T11:02:52;5.87;;;3.83;;
22929;SDS011;11630;42.660;23.292;2024-01-30T11:05:24;7.33;;;4.40;;
22929;SDS011;11630;42.660;23.292;2024-01-30T11:07:55;5.93;;;4.57;;
22929;SDS011;11630;42.660;23.292;2024-01-30T11:10:27;7.50;;;5.20;;
22929;SDS011;11630;42.660;23.292;2024-01-30T11:12:58;5.73;;;4.47;;
22929;SDS011;11630;42.660;23.292;2024-01-30T11:15:29;5.97;;;4.57;;
22929;SDS011;11630;42.660;23.292;2024-01-30T11:18:01;6.93;;;4.23;;
22929;SDS011;11630;42.660;23.292;2024-01-30T11:20:32;3.93;;;3.47;;
22929;SDS011;11630;42.660;23.292;2024-01-30T11:23:04;8.13;;;4.20;;
22929;SDS011;11630;42.660;23.292;2024-01-30T11:25:34;4.77;;;3.67;;
22929;SDS011;11630;42.660;23.292;2024-01-30T11:28:06;10.67;;;4.70;;
22929;SDS011;11630;42.660;23.292;2024-01-30T11:30:38;5.17;;;3.53;;
22929;SDS011;11630;42.660;23.292;2024-01-30T11:33:09;8.77;;;4.20;;
22929;SDS011;11630;42.660;23.292;2024-01-30T11:35:44;4.73;;;3.50;;
22929;SDS011;11630;42.660;23.292;2024-01-30T11:38:14;7.40;;;3.97;;
22929;SDS011;11630;42.660;23.292;2024-01-30T11:40:46;6.30;;;3.47;;
22929;SDS011;11630;42.660;23.292;2024-01-30T11:43:18;7.90;;;4.43;;
22929;SDS011;11630;42.660;23.292;2024-01-30T11:45:50;5.37;;;3.73;;
22929;SDS011;11630;42.660;23.292;2024-01-30T11:48:20;7.40;;;4.67;;
22929;SDS011;11630;42.660;23.292;2024-01-30T11:50:50;10.70;;;4.43;;
22929;SDS011;11630;42.660;23.292;2024-01-30T11:53:22;8.60;;;4.67;;
22929;SDS011;11630;42.660;23.292;2024-01-30T11:55:52;7.57;;;4.53;;
22929;SDS011;11630;42.660;23.292;2024-01-30T11:58:27;5.43;;;3.93;;
22929;SDS011;11630;42.660;23.292;2024-01-30T12:00:58;4.57;;;3.90;;
22929;SDS011;11630;42.660;23.292;2024-01-30T12:03:29;8.80;;;4.53;;
22929;SDS011;11630;42.660;23.292;2024-01-30T12:05:59;7.33;;;4.23;;
22929;SDS011;11630;42.660;23.292;2024-01-30T12:08:31;6.27;;;4.40;;
22929;SDS011;11630;42.660;23.292;2024-01-30T12:11:01;8.13;;;5.33;;
22929;SDS011;11630;42.660;23.292;2024-01-30T12:13:33;8.67;;;4.90;;
22929;SDS011;11630;42.660;23.292;2024-01-30T12:16:04;5.17;;;4.03;;
22929;SDS011;11630;42.660;23.292;2024-01-30T12:18:34;4.73;;;3.80;;
22929;SDS011;11630;42.660;23.292;2024-01-30T12:21:05;12.27;;;4.70;;
22929;SDS011;11630;42.660;23.292;2024-01-30T12:23:36;7.83;;;4.63;;
22929;SDS011;11630;42.660;23.292;2024-01-30T12:26:05;11.13;;;4.50;;
22929;SDS011;11630;42.660;23.292;2024-01-30T12:28:36;5.37;;;4.40;;
22929;SDS011;11630;42.660;23.292;2024-01-30T12:31:08;5.70;;;4.67;;
22929;SDS011;11630;42.660;23.292;2024-01-30T12:33:39;7.40;;;4.53;;
22929;SDS011;11630;42.660;23.292;2024-01-30T12:36:11;6.23;;;4.87;;
22929;SDS011;11630;42.660;23.292;2024-01-30T12:38:42;9.00;;;4.10;;
22929;SDS011;11630;42.660;23.292;2024-01-30T12:41:13;8.17;;;4.83;;
22929;SDS011;11630;42.660;23.292;2024-01-30T12:43:45;7.60;;;4.30;;
22929;SDS011;11630;42.660;23.292;2024-01-30T12:46:16;5.63;;;5.00;;
22929;SDS011;11630;42.660;23.292;2024-01-30T12:48:46;7.40;;;4.87;;
22929;SDS011;11630;42.660;23.292;2024-01-30T12:51:16;15.30;;;4.70;;
22929;SDS011;11630;42.660;23.292;2024-01-30T12:53:47;6.77;;;4.60;;
22929;SDS011;11630;42.660;23.292;2024-01-30T12:56:17;8.63;;;4.70;;
22929;SDS011;11630;42.660;23.292;2024-01-30T12:58:48;8.33;;;5.03;;
22929;SDS011;11630;42.660;23.292;2024-01-30T13:01:23;5.60;;;4.70;;
22929;SDS011;11630;42.660;23.292;2024-01-30T13:03:54;6.90;;;4.10;;
22929;SDS011;11630;42.660;23.292;2024-01-30T13:06:25;7.17;;;4.90;;
22929;SDS011;11630;42.660;23.292;2024-01-30T13:08:56;6.17;;;4.73;;
22929;SDS011;11630;42.660;23.292;2024-01-30T13:11:26;5.63;;;4.37;;
22929;SDS011;11630;42.660;23.292;2024-01-30T13:13:57;6.60;;;4.47;;
22929;SDS011;11630;42.660;23.292;2024-01-30T13:16:28;8.10;;;4.83;;
22929;SDS011;11630;42.660;23.292;2024-01-30T13:18:59;6.43;;;5.17;;
22929;SDS011;11630;42.660;23.292;2024-01-30T13:21:29;9.27;;;5.03;;
22929;SDS011;11630;42.660;23.292;2024-01-30T13:24:00;7.97;;;5.70;;
22929;SDS011;11630;42.660;23.292;2024-01-30T13:26:31;4.10;;;3.43;;
22929;SDS011;11630;42.660;23.292;2024-01-30T13:29:02;7.13;;;4.70;;
22929;SDS011;11630;42.660;23.292;2024-01-30T13:31:32;8.87;;;5.53;;
22929;SDS011;11630;42.660;23.292;2024-01-30T13:34:03;6.13;;;4.97;;
22929;SDS011;11630;42.660;23.292;2024-01-30T13:36:33;6.00;;;4.93;;
22929;SDS011;11630;42.660;23.292;2024-01-30T13:39:04;6.93;;;5.00;;
22929;SDS011;11630;42.660;23.292;2024-01-30T13:41:33;7.03;;;4.90;;
22929;SDS011;11630;42.660;23.292;2024-01-30T13:44:04;6.63;;;5.10;;
22929;SDS011;11630;42.660;23.292;2024-01-30T13:46:35;9.03;;;5.27;;
22929;SDS011;11630;42.660;23.292;2024-01-30T13:49:05;6.03;;;3.67;;
22929;SDS011;11630;42.660;23.292;2024-01-30T13:51:36;8.83;;;5.63;;
22929;SDS011;11630;42.660;23.292;2024-01-30T13:54:07;15.77;;;5.10;;
22929;SDS011;11630;42.660;23.292;2024-01-30T13:56:37;6.57;;;4.77;;
22929;SDS011;11630;42.660;23.292;2024-01-30T13:59:07;6.57;;;4.43;;
22929;SDS011;11630;42.660;23.292;2024-01-30T14:01:39;10.07;;;5.73;;
22929;SDS011;11630;42.660;23.292;2024-01-30T14:04:12;4.97;;;3.77;;
22929;SDS011;11630;42.660;23.292;2024-01-30T14:06:43;5.43;;;4.20;;
22929;SDS011;11630;42.660;23.292;2024-01-30T14:09:14;7.87;;;5.30;;
22929;SDS011;11630;42.660;23.292;2024-01-30T14:11:46;6.67;;;4.93;;
22929;SDS011;11630;42.660;23.292;2024-01-30T14:14:16;3.43;;;2.63;;
22929;SDS011;11630;42.660;23.292;2024-01-30T14:16:47;7.17;;;5.63;;
22929;SDS011;11630;42.660;23.292;2024-01-30T14:19:18;7.27;;;5.93;;
22929;SDS011;11630;42.660;23.292;2024-01-30T14:21:49;7.03;;;5.07;;
22929;SDS011;11630;42.660;23.292;2024-01-30T14:24:19;6.33;;;4.30;;
22929;SDS011;11630;42.660;23.292;2024-01-30T14:26:49;7.30;;;5.60;;
22929;SDS011;11630;42.660;23.292;2024-01-30T14:29:20;11.73;;;5.13;;
22929;SDS011;11630;42.660;23.292;2024-01-30T14:31:51;7.13;;;5.87;;
22929;SDS011;11630;42.660;23.292;2024-01-30T14:34:22;6.77;;;5.33;;
22929;SDS011;11630;42.660;23.292;2024-01-30T14:36:52;10.80;;;5.10;;
22929;SDS011;11630;42.660;23.292;2024-01-30T14:39:23;7.27;;;5.20;;
22929;SDS011;11630;42.660;23.292;2024-01-30T14:41:54;14.43;;;6.53;;
22929;SDS011;11630;42.660;23.292;2024-01-30T14:44:24;8.30;;;6.10;;
22929;SDS011;11630;42.660;23.292;2024-01-30T14:46:55;8.90;;;6.00;;
22929;SDS011;11630;42.660;23.292;2024-01-30T14:49:26;7.17;;;5.73;;
22929;SDS011;11630;42.660;23.292;2024-01-30T14:51:57;9.40;;;5.90;;
22929;SDS011;11630;42.660;23.292;2024-01-30T14:54:27;7.80;;;5.87;;